Time;durP1;ratioP1;P1;durP2;ratioP2;P2;SDS_P1;SDS_P2;PMS_P1;PMS_P2;Temp;Humidity;BMP_temperature;BMP_pressure;BME280_temperature;BME280_humidity;BME280_pressure;Samples;Min_cycle;Max_cycle;Signal;HPM_P1;HPM_P2
2022/05/01 00:02:28;;;;;;;14.20;7.55;;;;;;;9.25;87.23;102435.47;5071856;28;20059;-49
2022/05/01 00:04:57;;;;;;;11.70;7.85;;;;;;;9.26;88.14;102431.09;5068136;28;21064;-52
2022/05/01 00:07:25;;;;;;;13.77;7.50;;;;;;;9.29;87.81;102433.59;5067540;28;20056;-49
2022/05/01 00:09:53;;;;;;;16.17;8.20;;;;;;;9.22;88.07;102430.34;5072255;28;20045;-48
2022/05/01 00:12:22;;;;;;;13.07;7.70;;;;;;;9.26;88.26;102423.22;5067024;28;20056;-47
2022/05/01 00:14:52;;;;;;;14.15;7.85;;;;;;;9.20;88.62;102420.78;5067573;28;20052;-49
2022/05/01 00:17:20;;;;;;;13.13;7.82;;;;;;;9.26;88.42;102424.06;5071906;28;20048;-51
2022/05/01 00:19:49;;;;;;;14.70;8.48;;;;;;;9.32;88.40;102425.63;5071884;28;20052;-49
2022/05/01 00:22:20;;;;;;;13.38;7.88;;;;;;;9.29;88.60;102423.94;5071586;28;20049;-47
2022/05/01 00:24:48;;;;;;;12.27;7.22;;;;;;;9.30;88.52;102417.81;5070400;28;20475;-51
2022/05/01 00:27:17;;;;;;;13.70;8.07;;;;;;;9.31;88.26;102421.28;5070543;28;20040;-49
2022/05/01 00:29:45;;;;;;;12.40;7.75;;;;;;;9.38;88.34;102419.28;5072007;28;20052;-50
2022/05/01 00:32:16;;;;;;;11.65;7.65;;;;;;;9.31;88.94;102418.63;5071730;28;20049;-53
2022/05/01 00:37:30;;;;;;;14.90;7.90;;;;;;;9.19;89.10;102416.44;5071684;28;20076;-53
2022/05/01 00:39:58;;;;;;;12.73;7.97;;;;;;;9.18;88.91;102422.63;5067709;28;20052;-51
2022/05/01 00:42:26;;;;;;;12.45;7.78;;;;;;;9.12;89.19;102414.03;5066707;28;20036;-49
2022/05/01 00:44:54;;;;;;;13.00;7.70;;;;;;;9.08;90.11;102415.06;5071327;28;20050;-53
2022/05/01 00:47:24;;;;;;;13.65;8.50;;;;;;;9.12;90.15;102416.66;5071114;28;20044;-52
2022/05/01 00:49:53;;;;;;;13.75;7.95;;;;;;;9.12;89.97;102421.91;5071668;28;20566;-53
2022/05/01 00:52:23;;;;;;;11.55;7.72;;;;;;;9.06;90.44;102426.50;5071115;28;20044;-50
2022/05/01 00:54:51;;;;;;;15.05;8.57;;;;;;;9.10;89.92;102415.84;5071514;28;20119;-49
2022/05/01 00:57:20;;;;;;;14.55;8.18;;;;;;;9.10;90.25;102407.13;5068823;28;20129;-52
2022/05/01 00:59:51;;;;;;;14.88;8.27;;;;;;;9.05;90.56;102404.66;5066895;28;20391;-48
2022/05/01 01:02:19;;;;;;;16.27;8.35;;;;;;;9.08;90.12;102412.44;5070843;28;20056;-51
2022/05/01 01:04:49;;;;;;;13.57;7.95;;;;;;;9.13;90.47;102407.00;5071158;28;20106;-52
2022/05/01 01:07:18;;;;;;;12.00;8.23;;;;;;;9.01;91.68;102408.28;5071038;28;20118;-50
2022/05/01 01:09:46;;;;;;;13.63;8.10;;;;;;;9.02;91.38;102403.91;5071072;28;20055;-50
2022/05/01 01:15:09;;;;;;;14.98;8.85;;;;;;;9.13;91.28;102407.00;5067826;28;20044;-52
2022/05/01 01:17:38;;;;;;;15.30;8.10;;;;;;;9.13;91.11;102407.91;5071051;28;20487;-52
2022/05/01 01:20:12;;;;;;;14.32;8.48;;;;;;;9.18;90.49;102415.59;5074868;28;20060;-50
2022/05/01 01:22:44;;;;;;;13.68;8.27;;;;;;;9.17;90.68;102411.25;5075250;28;20515;-49
2022/05/01 01:25:12;;;;;;;15.60;9.13;;;;;;;9.02;90.55;102410.00;5075315;28;20560;-51
2022/05/01 01:27:41;;;;;;;14.07;8.70;;;;;;;9.04;90.68;102407.31;5075100;28;20479;-52
2022/05/01 01:32:56;;;;;;;13.52;8.50;;;;;;;9.08;91.01;102407.19;5070656;28;20556;-52
2022/05/01 01:35:25;;;;;;;15.70;8.68;;;;;;;9.05;90.81;102403.78;5073224;28;20376;-48
2022/05/01 01:37:55;;;;;;;13.95;8.60;;;;;;;9.01;91.56;102407.44;5074680;28;20057;-50
2022/05/01 01:40:32;;;;;;;17.15;8.77;;;;;;;9.03;90.51;102411.72;5074585;28;20052;-52
2022/05/01 01:43:00;;;;;;;14.57;9.27;;;;;;;9.08;91.09;102414.19;5071923;28;20156;-47
2022/05/01 01:45:29;;;;;;;14.82;9.13;;;;;;;9.11;90.95;102406.22;5070541;28;20052;-50
2022/05/01 01:48:09;;;;;;;15.65;8.75;;;;;;;9.06;91.95;102410.78;5073467;28;20051;-49
2022/05/01 01:50:38;;;;;;;16.08;9.05;;;;;;;8.95;92.50;102411.13;5074369;28;20097;-50
2022/05/01 01:53:08;;;;;;;14.07;8.93;;;;;;;8.98;92.32;102410.16;5073805;28;20048;-51
2022/05/01 01:55:38;;;;;;;13.13;8.73;;;;;;;8.97;92.15;102404.03;5070556;28;20074;-54
2022/05/01 01:58:07;;;;;;;13.38;8.60;;;;;;;8.93;92.17;102399.81;5071131;28;20052;-50
2022/05/01 02:00:35;;;;;;;13.85;9.05;;;;;;;9.00;91.90;102400.47;5072201;28;20537;-49
2022/05/01 02:03:05;;;;;;;17.80;9.35;;;;;;;8.99;91.89;102394.38;5070775;28;20048;-52
2022/05/01 02:05:35;;;;;;;12.75;8.93;;;;;;;8.95;91.88;102390.97;5074244;28;20063;-51
2022/05/01 02:08:05;;;;;;;15.13;9.18;;;;;;;8.97;91.82;102393.53;5074552;28;20130;-48
2022/05/01 02:10:36;;;;;;;16.13;9.38;;;;;;;9.05;91.39;102393.28;5074425;28;20098;-49
2022/05/01 02:13:05;;;;;;;14.32;8.70;;;;;;;9.02;91.78;102396.88;5074328;28;20473;-52
2022/05/01 02:15:34;;;;;;;14.60;8.38;;;;;;;9.02;91.92;102394.25;5074087;28;20047;-52
2022/05/01 02:18:04;;;;;;;14.88;8.95;;;;;;;8.99;92.21;102390.91;5069989;28;20048;-49
2022/05/01 02:21:34;;;;;;;14.23;8.48;;;;;;;8.94;92.62;102391.03;5071661;28;20117;-54
2022/05/01 02:23:24;;;;;;;14.05;9.32;;;;;;;8.98;91.70;102386.56;5074169;28;20491;-51
2022/05/01 02:25:53;;;;;;;14.38;9.02;;;;;;;8.93;92.21;102389.31;5074094;28;20049;-49
2022/05/01 02:28:27;;;;;;;14.57;9.50;;;;;;;8.93;92.54;102392.81;5069602;28;20037;-51
2022/05/01 02:30:56;;;;;;;17.27;9.82;;;;;;;8.98;92.38;102384.78;5070133;28;20052;-51
2022/05/01 02:33:25;;;;;;;16.40;9.98;;;;;;;8.78;94.47;102385.44;5073821;28;20041;-51
2022/05/01 02:35:53;;;;;;;16.10;9.48;;;;;;;8.70;95.36;102388.31;5073762;28;20059;-50
2022/05/01 02:38:21;;;;;;;14.20;8.80;;;;;;;8.60;96.23;102392.16;5073535;28;20059;-49
2022/05/01 02:40:50;;;;;;;14.07;8.90;;;;;;;8.73;95.26;102387.38;5073661;28;20136;-52
2022/05/01 02:43:19;;;;;;;16.02;9.80;;;;;;;8.73;94.41;102379.50;5073607;28;20495;-52
2022/05/01 02:45:48;;;;;;;16.65;10.23;;;;;;;8.62;94.69;102380.69;5073608;28;20098;-51
2022/05/01 02:48:16;;;;;;;15.18;9.38;;;;;;;8.61;95.10;102384.22;5071077;28;20040;-51
2022/05/01 02:50:45;;;;;;;14.85;9.23;;;;;;;8.64;95.39;102385.88;5069561;28;20391;-51
2022/05/01 02:53:13;;;;;;;17.17;10.50;;;;;;;8.65;95.35;102381.53;5071582;28;20055;-48
2022/05/01 02:55:41;;;;;;;16.80;9.10;;;;;;;8.68;95.67;102378.78;5068837;28;20052;-52
2022/05/01 02:58:09;;;;;;;17.27;10.45;;;;;;;8.71;95.51;102382.19;5069667;28;20076;-50
2022/05/01 03:00:40;;;;;;;15.40;9.52;;;;;;;8.63;95.96;102377.19;5071275;28;20592;-48
2022/05/01 03:03:08;;;;;;;16.73;9.80;;;;;;;8.63;95.48;102376.34;5069228;28;20083;-47
2022/05/01 03:05:37;;;;;;;16.80;9.82;;;;;;;8.72;95.10;102376.00;5072044;28;20044;-50
2022/05/01 03:08:06;;;;;;;16.77;10.10;;;;;;;8.66;95.00;102376.22;5073630;28;20058;-50
2022/05/01 03:10:34;;;;;;;15.85;10.55;;;;;;;8.61;95.26;102376.34;5071966;28;20115;-48
2022/05/01 03:13:03;;;;;;;16.10;9.70;;;;;;;8.69;94.78;102370.88;5067153;28;20056;-52
2022/05/01 03:15:31;;;;;;;16.10;9.55;;;;;;;8.60;95.02;102366.78;5071534;28;20049;-48
2022/05/01 03:23:32;;;;;;;15.75;10.27;;;;;;;8.53;95.55;102365.25;5069411;28;20052;-48
2022/05/01 03:26:01;;;;;;;18.50;10.63;;;;;;;8.50;95.27;102356.66;5071571;28;20492;-51
2022/05/01 03:28:29;;;;;;;18.55;10.07;;;;;;;8.48;95.20;102355.81;5072324;28;20085;-52
2022/05/01 03:30:58;;;;;;;14.07;9.65;;;;;;;8.43;95.53;102361.19;5068777;28;20060;-47
2022/05/01 03:33:28;;;;;;;14.38;9.07;;;;;;;8.39;95.74;102363.03;5069474;28;20102;-48
2022/05/01 03:35:57;;;;;;;13.63;9.25;;;;;;;8.35;96.03;102358.81;5070613;28;20463;-49
2022/05/01 03:38:26;;;;;;;17.00;10.65;;;;;;;8.33;96.28;102360.63;5069158;28;20086;-48
2022/05/01 03:40:54;;;;;;;16.73;9.98;;;;;;;8.37;96.14;102358.75;5071623;28;20045;-49
2022/05/01 03:43:25;;;;;;;15.40;9.73;;;;;;;8.27;96.34;102359.03;5072850;28;20127;-51
2022/05/01 03:45:53;;;;;;;16.75;10.38;;;;;;;8.24;96.50;102360.91;5072527;28;20490;-48
2022/05/01 03:48:21;;;;;;;14.85;9.57;;;;;;;8.23;97.41;102359.19;5072298;28;20048;-47
2022/05/01 03:50:53;;;;;;;17.38;10.48;;;;;;;8.16;97.37;102357.69;5072682;28;20058;-50
2022/05/01 03:53:22;;;;;;;14.70;9.63;;;;;;;8.15;98.00;102354.19;5072175;28;20051;-50
2022/05/01 03:55:51;;;;;;;16.48;10.30;;;;;;;8.16;98.17;102357.69;5067507;28;20056;-50
2022/05/01 03:58:20;;;;;;;16.92;9.90;;;;;;;8.23;97.32;102360.03;5067128;28;20126;-51
2022/05/01 04:00:49;;;;;;;15.80;10.15;;;;;;;8.25;97.86;102362.66;5072380;28;20045;-48
2022/05/01 04:03:18;;;;;;;16.60;10.27;;;;;;;8.18;98.18;102355.84;5072041;28;20067;-51
2022/05/01 04:05:46;;;;;;;18.25;10.35;;;;;;;8.23;97.91;102364.44;5072232;28;20476;-49
2022/05/01 04:08:16;;;;;;;14.82;10.15;;;;;;;8.20;98.80;102357.53;5072028;28;20056;-48
2022/05/01 04:10:46;;;;;;;14.55;8.98;;;;;;;8.18;98.50;102363.72;5071904;28;20044;-49
2022/05/01 04:13:15;;;;;;;17.52;10.40;;;;;;;8.22;98.08;102360.09;5071831;28;20139;-52
2022/05/01 04:15:44;;;;;;;15.25;10.00;;;;;;;8.20;98.33;102357.53;5071975;28;20124;-49
2022/05/01 04:18:13;;;;;;;17.02;9.80;;;;;;;8.11;98.27;102371.78;5071879;28;20076;-47
2022/05/01 04:20:41;;;;;;;18.48;10.73;;;;;;;8.07;99.10;102371.91;5071779;28;20044;-52
2022/05/01 04:23:10;;;;;;;13.85;9.35;;;;;;;8.05;99.07;102368.50;5071822;28;20122;-47
2022/05/01 04:25:43;;;;;;;15.52;10.77;;;;;;;7.95;99.64;102371.38;5071780;28;20055;-48
2022/05/01 04:28:13;;;;;;;17.13;10.60;;;;;;;7.82;100.00;102369.16;5072060;28;20449;-46
2022/05/01 04:30:41;;;;;;;15.48;9.15;;;;;;;7.87;100.00;102368.13;5071812;28;20461;-51
2022/05/01 04:33:13;;;;;;;15.00;9.77;;;;;;;7.93;100.00;102365.34;5071873;28;20048;-49
2022/05/01 04:35:43;;;;;;;15.68;9.93;;;;;;;8.00;99.98;102370.38;5072069;28;20041;-50
2022/05/01 04:38:13;;;;;;;16.15;10.18;;;;;;;7.98;100.00;102373.06;5071991;28;20045;-50
2022/05/01 04:40:45;;;;;;;16.42;9.68;;;;;;;8.09;99.72;102370.94;5071808;28;20045;-50
2022/05/01 04:43:16;;;;;;;14.88;9.98;;;;;;;8.06;99.89;102370.22;5071709;28;20071;-52
2022/05/01 04:45:46;;;;;;;14.85;9.80;;;;;;;8.00;100.00;102371.22;5067799;28;20048;-48
2022/05/01 04:48:16;;;;;;;14.48;10.02;;;;;;;8.05;100.00;102373.72;5068420;28;20040;-51
2022/05/01 04:50:45;;;;;;;16.25;9.70;;;;;;;8.03;100.00;102370.28;5071221;28;20044;-53
2022/05/01 04:53:14;;;;;;;19.23;10.60;;;;;;;8.07;99.64;102370.16;5069288;28;20563;-50
2022/05/01 04:55:45;;;;;;;14.65;9.13;;;;;;;8.05;100.00;102373.72;5066911;28;20041;-52
2022/05/01 04:58:15;;;;;;;15.65;10.25;;;;;;;8.07;99.68;102379.75;5069799;28;20102;-49
2022/05/01 05:00:44;;;;;;;16.17;10.70;;;;;;;8.04;99.77;102372.00;5071344;28;20051;-50
2022/05/01 05:03:12;;;;;;;16.40;10.73;;;;;;;8.07;100.00;102371.91;5069966;28;20163;-52
2022/05/01 05:05:41;;;;;;;17.75;10.35;;;;;;;8.05;99.86;102376.34;5067534;28;20052;-55
2022/05/01 05:10:56;;;;;;;17.20;9.98;;;;;;;7.95;100.00;102381.00;5069305;28;20571;-52
2022/05/01 05:13:27;;;;;;;16.63;9.40;;;;;;;7.98;100.00;102380.06;5066859;28;20110;-51
2022/05/01 05:15:59;;;;;;;16.83;9.95;;;;;;;8.05;99.61;102381.59;5068251;28;20053;-52
2022/05/01 05:18:29;;;;;;;14.38;9.57;;;;;;;8.04;99.93;102382.47;5071162;28;20049;-49
2022/05/01 05:20:58;;;;;;;17.10;9.98;;;;;;;8.08;99.75;102384.09;5069654;28;20047;-48
2022/05/01 05:23:26;;;;;;;14.73;9.50;;;;;;;8.11;98.94;102381.38;5070540;28;20451;-49
2022/05/01 05:25:56;;;;;;;16.40;9.60;;;;;;;8.08;99.52;102384.09;5070749;28;20550;-50
2022/05/01 05:28:25;;;;;;;15.38;9.70;;;;;;;8.09;99.68;102385.84;5069254;28;20056;-48
2022/05/01 05:30:53;;;;;;;14.93;10.13;;;;;;;8.05;99.93;102387.69;5066437;28;20437;-51
2022/05/01 05:33:22;;;;;;;16.25;9.75;;;;;;;8.09;99.54;102381.44;5069751;28;20535;-51
2022/05/01 05:35:50;;;;;;;13.73;9.05;;;;;;;8.15;99.56;102390.03;5071312;28;20640;-46
2022/05/01 05:38:18;;;;;;;15.10;9.90;;;;;;;8.17;99.56;102383.00;5070898;28;20103;-51
2022/05/01 05:40:47;;;;;;;18.23;10.23;;;;;;;8.19;99.54;102387.25;5069391;28;20102;-49
2022/05/01 05:43:16;;;;;;;14.68;9.55;;;;;;;8.20;99.27;102388.13;5070873;28;20076;-49
2022/05/01 05:45:45;;;;;;;17.23;10.05;;;;;;;8.23;99.39;102393.28;5071124;28;20041;-50
2022/05/01 05:48:13;;;;;;;16.98;9.68;;;;;;;8.36;99.60;102388.53;5070852;28;20110;-51
2022/05/01 05:50:41;;;;;;;19.67;10.05;;;;;;;8.49;98.80;102389.00;5070807;28;20504;-49
2022/05/01 05:53:10;;;;;;;23.65;10.98;;;;;;;8.47;99.04;102391.69;5071070;28;20552;-48
2022/05/01 05:55:38;;;;;;;18.40;10.70;;;;;;;8.52;98.89;102395.03;5070683;28;20108;-50
2022/05/01 05:58:06;;;;;;;16.02;9.23;;;;;;;8.59;98.53;102393.91;5070954;28;20468;-49
2022/05/01 06:00:36;;;;;;;16.85;10.05;;;;;;;8.67;98.52;102398.94;5070553;28;20056;-52
2022/05/01 06:03:04;;;;;;;16.92;9.90;;;;;;;8.73;98.16;102400.50;5070560;28;20067;-50
2022/05/01 06:05:33;;;;;;;14.73;10.63;;;;;;;8.82;97.14;102405.44;5071567;28;20124;-48
2022/05/01 06:08:01;;;;;;;14.93;9.98;;;;;;;8.83;96.51;102406.28;5074251;28;20047;-50
2022/05/01 06:10:30;;;;;;;17.63;10.38;;;;;;;8.89;95.77;102409.56;5074265;28;20045;-47
2022/05/01 06:12:58;;;;;;;14.75;9.60;;;;;;;8.96;95.23;102400.56;5074335;28;20454;-52
2022/05/01 06:15:26;;;;;;;16.33;10.00;;;;;;;8.96;95.45;102400.56;5074147;28;20051;-52
2022/05/01 06:17:56;;;;;;;16.15;10.20;;;;;;;8.96;95.61;102415.47;5074336;28;20064;-48
2022/05/01 06:20:26;;;;;;;16.02;10.70;;;;;;;8.93;95.48;102407.69;5074292;28;20530;-49
2022/05/01 06:22:54;;;;;;;17.73;11.63;;;;;;;8.89;95.28;102409.56;5074391;28;20052;-49
2022/05/01 06:25:23;;;;;;;17.20;10.35;;;;;;;9.07;95.39;102412.50;5074033;28;20454;-51
2022/05/01 06:27:51;;;;;;;16.40;10.68;;;;;;;9.16;95.30;102416.56;5068980;28;20041;-49
2022/05/01 06:30:19;;;;;;;17.45;10.70;;;;;;;9.27;95.59;102412.66;5070429;28;20143;-52
2022/05/01 06:32:49;;;;;;;14.75;9.55;;;;;;;9.28;93.56;102414.38;5074173;28;20072;-51
2022/05/01 06:35:18;;;;;;;15.93;9.57;;;;;;;9.41;93.02;102409.53;5074155;28;20123;-49
2022/05/01 06:37:47;;;;;;;15.98;9.65;;;;;;;9.53;92.64;102407.38;5073921;28;20045;-48
2022/05/01 06:40:15;;;;;;;15.05;10.20;;;;;;;9.64;91.86;102413.97;5073806;28;20048;-49
2022/05/01 06:42:49;;;;;;;16.17;9.85;;;;;;;9.76;91.35;102412.69;5073402;28;20148;-50
2022/05/01 06:45:17;;;;;;;15.10;9.68;;;;;;;9.87;91.28;102412.28;5073356;28;20094;-46
2022/05/01 06:47:45;;;;;;;18.10;10.20;;;;;;;9.92;90.31;102417.34;5073565;28;20040;-50
2022/05/01 06:50:14;;;;;;;16.30;9.32;;;;;;;9.95;90.22;102411.97;5073252;28;20048;-51
2022/05/01 06:52:44;;;;;;;15.68;9.63;;;;;;;10.01;90.09;102416.16;5070280;28;20052;-50
2022/05/01 06:55:13;;;;;;;17.65;10.35;;;;;;;10.01;89.40;102414.41;5069695;28;20086;-53
2022/05/01 06:57:42;;;;;;;17.92;10.00;;;;;;;10.05;89.25;102413.34;5073222;28;20079;-49
2022/05/01 07:00:12;;;;;;;19.38;10.45;;;;;;;10.16;89.08;102418.22;5073554;28;20051;-52
2022/05/01 07:02:45;;;;;;;15.32;10.18;;;;;;;10.18;88.72;102408.47;5073364;28;20084;-53
2022/05/01 07:05:14;;;;;;;14.48;9.98;;;;;;;10.28;88.30;102416.84;5070675;28;20087;-51
2022/05/01 07:07:44;;;;;;;16.75;9.65;;;;;;;10.29;88.48;102408.94;5069742;28;20044;-48
2022/05/01 07:10:13;;;;;;;17.35;10.52;;;;;;;10.47;87.83;102411.75;5073325;28;20502;-51
2022/05/01 07:12:41;;;;;;;16.08;10.20;;;;;;;10.41;88.37;102412.88;5073215;28;20059;-49
2022/05/01 07:15:11;;;;;;;14.25;9.63;;;;;;;10.69;86.00;102416.16;5073335;28;20075;-48
2022/05/01 07:17:39;;;;;;;14.35;9.98;;;;;;;10.67;85.57;102420.66;5073204;28;20037;-52
2022/05/01 07:20:09;;;;;;;15.25;10.55;;;;;;;10.73;85.21;102420.38;5072858;28;20076;-50
2022/05/01 07:22:37;;;;;;;13.88;9.45;;;;;;;10.79;84.91;102420.16;5069089;28;20098;-52
2022/05/01 07:25:08;;;;;;;14.52;10.52;;;;;;;10.78;84.24;102414.03;5071178;28;20044;-50
2022/05/01 07:27:36;;;;;;;16.10;10.65;;;;;;;10.83;84.57;102412.06;5072975;28;20619;-51
2022/05/01 07:30:06;;;;;;;16.45;10.07;;;;;;;10.84;84.14;102418.19;5072962;28;20045;-49
2022/05/01 07:32:34;;;;;;;16.50;10.30;;;;;;;10.99;83.72;102412.28;5072474;28;20054;-53
2022/05/01 07:35:03;;;;;;;15.82;10.98;;;;;;;10.94;84.68;102416.03;5068084;28;20047;-49
2022/05/01 07:37:31;;;;;;;13.95;9.88;;;;;;;11.17;82.56;102420.31;5069381;28;20098;-52
2022/05/01 07:40:01;;;;;;;14.70;10.80;;;;;;;11.18;81.83;102415.91;5072773;28;20207;-48
2022/05/01 07:42:30;;;;;;;14.68;9.80;;;;;;;11.29;81.37;102417.16;5068293;28;20147;-48
2022/05/01 07:44:59;;;;;;;19.20;10.85;;;;;;;11.33;82.31;102413.47;5068826;28;20135;-51
2022/05/01 07:47:27;;;;;;;16.13;10.50;;;;;;;11.46;82.66;102413.78;5072491;28;20040;-51
2022/05/01 07:49:55;;;;;;;15.25;10.80;;;;;;;11.66;82.41;102418.19;5072556;28;20674;-52
2022/05/01 07:52:25;;;;;;;16.75;10.15;;;;;;;11.64;79.53;102420.03;5072448;28;20055;-51
2022/05/01 07:54:54;;;;;;;14.90;9.93;;;;;;;11.75;78.30;102416.94;5072511;28;20057;-54
2022/05/01 07:57:26;;;;;;;17.58;11.20;;;;;;;11.94;78.07;102416.06;5072385;28;20044;-52
2022/05/01 07:59:56;;;;;;;15.02;10.18;;;;;;;12.00;77.18;102416.69;5072807;28;20056;-52
2022/05/01 08:02:24;;;;;;;18.15;10.18;;;;;;;12.00;75.94;102416.69;5071606;28;20121;-51
2022/05/01 08:04:52;;;;;;;13.98;10.23;;;;;;;12.10;76.39;102414.47;5069668;28;20391;-54
2022/05/01 08:07:20;;;;;;;13.98;10.63;;;;;;;12.24;76.37;102408.53;5068815;28;20076;-54
2022/05/01 08:09:48;;;;;;;16.00;10.48;;;;;;;12.43;75.75;102407.66;5071426;28;20055;-50
2022/05/01 08:12:17;;;;;;;16.92;10.18;;;;;;;12.50;75.96;102409.94;5072060;28;20052;-51
2022/05/01 08:14:46;;;;;;;13.63;9.38;;;;;;;12.63;73.57;102412.81;5072397;28;20399;-50
2022/05/01 08:17:16;;;;;;;15.43;10.65;;;;;;;12.77;73.32;102419.22;5072165;28;20090;-48
2022/05/01 08:22:30;;;;;;;16.65;10.07;;;;;;;12.92;72.50;102413.16;5068577;28;20087;-55
2022/05/01 08:24:58;;;;;;;14.45;9.95;;;;;;;13.20;72.78;102419.69;5068615;28;20487;-53
2022/05/01 08:27:27;;;;;;;15.38;10.02;;;;;;;13.32;71.17;102416.44;5071647;28;20511;-53
2022/05/01 08:29:55;;;;;;;14.95;9.45;;;;;;;13.42;70.99;102408.06;5071366;28;20037;-50
2022/05/01 08:32:26;;;;;;;13.68;9.63;;;;;;;13.70;67.69;102410.06;5071546;28;20105;-52
2022/05/01 08:34:54;;;;;;;15.80;10.35;;;;;;;13.52;68.85;102414.56;5072091;28;20542;-52
2022/05/01 08:37:23;;;;;;;15.02;9.60;;;;;;;13.61;69.99;102414.06;5071871;28;20048;-53
2022/05/01 08:39:51;;;;;;;14.98;10.10;;;;;;;13.82;68.69;102416.50;5072066;28;20048;-53
2022/05/01 08:42:19;;;;;;;14.07;10.02;;;;;;;13.87;67.72;102409.16;5071773;28;20056;-52
2022/05/01 08:44:49;;;;;;;15.07;9.90;;;;;;;13.94;67.22;102410.53;5071702;28;20445;-52
2022/05/01 08:47:23;;;;;;;14.52;10.40;;;;;;;14.20;66.00;102405.59;5071355;28;20053;-50
2022/05/01 08:49:57;;;;;;;14.52;10.13;;;;;;;14.27;66.13;102403.47;5071629;28;20052;-50
2022/05/01 08:52:27;;;;;;;15.55;10.00;;;;;;;14.40;65.15;102404.50;5071587;28;20053;-54
2022/05/01 08:54:58;;;;;;;14.18;10.05;;;;;;;14.50;64.82;102404.81;5071351;28;20094;-52
2022/05/01 08:57:28;;;;;;;14.07;10.38;;;;;;;14.66;64.48;102404.81;5067135;28;20071;-51
2022/05/01 08:59:57;;;;;;;13.35;9.52;;;;;;;14.81;62.96;102406.56;5067019;28;20545;-52
2022/05/01 09:02:26;;;;;;;13.75;9.50;;;;;;;14.96;63.42;102394.22;5070251;28;20044;-52
2022/05/01 09:04:59;;;;;;;13.88;9.55;;;;;;;15.03;62.12;102397.38;5067373;28;20421;-51
2022/05/01 09:07:27;;;;;;;13.98;9.18;;;;;;;15.36;61.00;102390.97;5069020;28;20048;-49
2022/05/01 09:09:56;;;;;;;14.25;9.68;;;;;;;15.06;61.31;102394.53;5071239;28;20785;-52
2022/05/01 09:15:12;;;;;;;15.32;10.10;;;;;;;15.18;62.12;102395.59;5070225;28;20482;-50
2022/05/01 09:17:41;;;;;;;16.33;10.20;;;;;;;15.29;61.05;102395.78;5067841;28;20055;-52
2022/05/01 09:20:11;;;;;;;14.05;9.88;;;;;;;15.41;60.31;102383.59;5069327;28;20059;-52
2022/05/01 09:22:50;;;;;;;17.73;10.38;;;;;;;15.65;59.42;102389.19;5071053;28;20086;-51
2022/05/01 09:25:22;;;;;;;16.75;11.32;;;;;;;15.69;59.14;102393.34;5071057;28;20057;-50
2022/05/01 09:27:52;;;;;;;18.05;10.93;;;;;;;15.72;58.27;102393.16;5071204;28;20041;-50
2022/05/01 09:30:21;;;;;;;16.35;10.25;;;;;;;15.85;59.01;102397.72;5071289;28;20045;-50
2022/05/01 09:32:54;;;;;;;11.98;9.02;;;;;;;16.13;56.97;102386.19;5071442;28;20059;-52
2022/05/01 09:35:31;;;;;;;14.68;9.07;;;;;;;16.37;54.42;102393.50;5068259;28;20056;-52
2022/05/01 09:38:16;;;;;;;12.98;9.45;;;;;;;16.24;56.80;102385.50;5066886;28;20115;-51
2022/05/01 09:40:46;;;;;;;15.23;9.32;;;;;;;16.58;57.08;102393.91;5073759;28;20135;-50
2022/05/01 09:43:35;;;;;;;12.73;7.95;;;;;;;16.72;51.83;102390.34;5075079;28;20404;-49
2022/05/01 09:46:18;;;;;;;12.45;8.77;;;;;;;16.75;53.31;102390.13;5074737;28;20076;-48
2022/05/01 09:48:59;;;;;;;14.95;9.25;;;;;;;16.68;54.78;102392.34;5074568;28;20046;-49
2022/05/01 09:51:30;;;;;;;12.73;8.95;;;;;;;16.67;53.21;102387.97;5074632;28;20049;-48
2022/05/01 09:54:00;;;;;;;15.40;9.50;;;;;;;16.66;51.73;102388.94;5071656;28;20144;-50
2022/05/01 09:56:28;;;;;;;13.20;7.38;;;;;;;17.03;48.63;102380.34;5068045;28;20114;-49
2022/05/01 09:59:01;;;;;;;11.88;7.38;;;;;;;17.29;45.85;102375.88;5074399;28;20037;-49
2022/05/01 10:01:30;;;;;;;;;;;;;;;17.20;45.74;102374.69;5073462;28;20036;-51
2022/05/01 10:04:01;;;;;;;11.68;8.43;;;;;;;17.11;49.55;102371.81;5074298;28;19946;-50
2022/05/01 10:06:33;;;;;;;11.80;8.13;;;;;;;17.00;48.80;102369.91;5073588;28;20052;-52
2022/05/01 10:09:02;;;;;;;14.40;7.72;;;;;;;16.79;48.25;102372.19;5073673;28;20040;-51
2022/05/01 10:11:31;;;;;;;15.15;7.93;;;;;;;17.04;46.18;102374.03;5073535;28;20048;-48
2022/05/01 10:14:00;;;;;;;10.50;6.68;;;;;;;16.83;46.65;102371.88;5073836;28;20530;-51
2022/05/01 10:16:29;;;;;;;12.82;7.60;;;;;;;16.79;46.76;102366.88;5072330;28;20056;-52
2022/05/01 10:18:58;;;;;;;11.05;6.65;;;;;;;16.63;46.41;102378.50;5070369;28;20094;-51
2022/05/01 10:21:50;;;;;;;11.07;6.93;;;;;;;16.55;47.83;102370.19;5074186;28;20047;-51
2022/05/01 10:24:20;;;;;;;10.32;6.10;;;;;;;16.50;46.83;102369.69;5074083;28;20048;-53
2022/05/01 10:26:53;;;;;;;9.65;6.43;;;;;;;16.42;45.98;102372.84;5074086;28;20527;-48
2022/05/01 10:29:36;;;;;;;8.73;5.85;;;;;;;16.52;42.72;102376.59;5073997;28;20041;-54
2022/05/01 10:32:36;;;;;;;8.80;5.10;;;;;;;16.55;41.89;102372.84;5073869;28;20123;-46
2022/05/01 10:35:45;;;;;;;10.63;5.80;;;;;;;16.48;40.59;102364.44;5071651;28;20495;-49
2022/05/01 10:38:26;;;;;;;10.73;5.95;;;;;;;16.51;43.34;102366.91;5070105;28;20048;-52
2022/05/01 10:40:56;;;;;;;9.63;5.68;;;;;;;16.21;43.13;102369.75;5073890;28;20060;-50
2022/05/01 10:43:28;;;;;;;10.05;5.60;;;;;;;16.33;42.80;102365.47;5073973;28;20479;-53
2022/05/01 10:45:58;;;;;;;9.45;5.75;;;;;;;16.35;43.38;102359.09;5074007;28;20588;-51
2022/05/01 10:48:36;;;;;;;9.55;6.45;;;;;;;16.32;44.09;102359.31;5073774;28;20387;-50
2022/05/01 10:51:41;;;;;;;9.35;6.18;;;;;;;16.32;42.87;102358.44;5073107;28;20094;-49
2022/05/01 10:54:36;;;;;;;11.32;6.38;;;;;;;16.13;44.39;102354.34;5073592;28;20140;-49
2022/05/01 10:57:23;;;;;;;10.48;6.13;;;;;;;16.05;43.98;102354.00;5073703;28;20052;-52
2022/05/01 11:00:05;;;;;;;12.13;5.90;;;;;;;16.10;44.10;102354.56;5073949;28;20548;-51
2022/05/01 11:02:44;;;;;;;9.48;5.93;;;;;;;16.06;43.62;102353.06;5073584;28;20505;-48
2022/05/01 11:05:42;;;;;;;10.38;5.82;;;;;;;15.88;42.43;102345.34;5073302;28;20048;-49
2022/05/01 11:08:15;;;;;;;9.93;6.15;;;;;;;15.97;43.45;102351.84;5073490;28;20055;-52
2022/05/01 11:10:47;;;;;;;9.15;5.80;;;;;;;16.00;41.45;102343.66;5073279;28;20079;-53
2022/05/01 11:13:31;;;;;;;9.32;6.03;;;;;;;15.75;42.50;102340.84;5073292;28;20154;-51
2022/05/01 11:16:00;;;;;;;9.32;5.68;;;;;;;15.72;43.23;102348.06;5073744;28;20580;-53
2022/05/01 11:18:29;;;;;;;10.10;5.85;;;;;;;15.56;42.49;102334.06;5073416;28;20124;-54
2022/05/01 11:21:32;;;;;;;10.07;6.22;;;;;;;15.81;42.01;102329.91;5073456;28;20511;-52
2022/05/01 11:24:02;;;;;;;10.10;5.87;;;;;;;15.97;43.18;102332.44;5071616;28;20053;-50
2022/05/01 11:26:32;;;;;;;10.02;5.72;;;;;;;15.68;42.29;102330.66;5067835;28;20461;-52
2022/05/01 11:29:10;;;;;;;9.40;5.28;;;;;;;15.77;43.23;102326.53;5070138;28;20047;-52
2022/05/01 11:31:50;;;;;;;9.57;5.82;;;;;;;16.01;44.19;102329.47;5073031;28;20045;-53
2022/05/01 11:34:49;;;;;;;8.48;5.10;;;;;;;16.07;42.33;102324.72;5072846;28;20040;-49
2022/05/01 11:37:18;;;;;;;9.57;5.40;;;;;;;16.31;42.38;102333.72;5073268;28;20052;-50
2022/05/01 11:40:20;;;;;;;8.68;5.70;;;;;;;16.21;41.02;102319.34;5073027;28;20044;-54
2022/05/01 11:42:51;;;;;;;8.77;5.57;;;;;;;16.49;41.40;102322.81;5072737;28;20072;-50
2022/05/01 11:45:20;;;;;;;9.57;5.95;;;;;;;16.45;41.24;102319.50;5072676;28;20502;-53
2022/05/01 11:47:50;;;;;;;8.98;5.18;;;;;;;16.62;41.28;102312.22;5072868;28;20495;-51
2022/05/01 11:50:21;;;;;;;10.23;5.60;;;;;;;16.88;40.80;102303.31;5072978;28;20045;-54
2022/05/01 11:52:54;;;;;;;10.00;5.57;;;;;;;16.95;39.63;102298.47;5071136;28;20053;-50
2022/05/01 12:02:24;;;;;;;9.43;6.20;;;;;;;16.86;39.86;102296.41;5071178;28;20083;-53
2022/05/01 12:03:55;;;;;;;10.77;5.75;;;;;;;16.58;40.96;102295.66;5068881;28;20475;-51
2022/05/01 12:06:26;;;;;;;15.85;6.40;;;;;;;17.01;40.69;102283.91;5069064;28;20040;-52